createdAt,value
2019-05-17T00:03:11.124Z,88.54
2019-05-17T00:08:38.203Z,89.49
2019-05-17T00:14:01.788Z,89.53
2019-05-17T00:19:26.361Z,88.95
2019-05-17T00:24:48.211Z,88.86
2019-05-17T00:30:17.546Z,88.67
2019-05-17T00:35:38.869Z,89.17
2019-05-17T00:41:06.903Z,89.34
2019-05-17T00:46:29.453Z,89.60
2019-05-17T00:51:56.606Z,89.25
2019-05-17T00:57:20.426Z,89.13
2019-05-17T01:02:46.768Z,89.23
2019-05-17T01:08:10.575Z,89.45
2019-05-17T01:13:37.217Z,89.46
2019-05-17T01:18:59.753Z,89.57
2019-05-17T01:24:24.790Z,89.48
2019-05-17T01:29:47.954Z,89.18
2019-05-17T01:35:12.207Z,89.65
2019-05-17T01:40:36.958Z,89.91
2019-05-17T01:46:01.333Z,90.05
2019-05-17T01:51:26.964Z,90.69
2019-05-17T01:56:50.151Z,91.21
2019-05-17T02:02:26.996Z,90.51
2019-05-17T02:07:51.249Z,91.43
2019-05-17T02:13:16.446Z,90.99
2019-05-17T02:18:38.439Z,91.36
2019-05-17T02:24:02.502Z,91.41
2019-05-17T02:29:25.070Z,91.05
2019-05-17T02:34:48.982Z,90.89
2019-05-17T02:40:14.852Z,91.03
2019-05-17T02:45:43.299Z,91.65
2019-05-17T02:51:05.586Z,91.54
2019-05-17T02:56:32.824Z,91.45
2019-05-17T03:01:55.944Z,91.49
2019-05-17T03:07:23.188Z,91.21
2019-05-17T03:12:46.905Z,91.03
2019-05-17T03:18:13.430Z,91.01
2019-05-17T03:23:37.589Z,91.53
2019-05-17T03:29:03.514Z,91.52
2019-05-17T03:34:27.465Z,91.49
2019-05-17T03:39:53.604Z,91.95
2019-05-17T03:45:18.919Z,91.65
2019-05-17T03:50:43.904Z,92.05
2019-05-17T03:56:13.155Z,92.08
2019-05-17T04:01:34.135Z,92.20
2019-05-17T04:07:03.143Z,91.87
2019-05-17T04:12:25.835Z,92.13
2019-05-17T04:17:52.858Z,91.49
2019-05-17T04:23:18.598Z,91.54
2019-05-17T04:28:44.136Z,91.08
2019-05-17T04:34:07.165Z,90.68
2019-05-17T04:39:32.615Z,90.96
2019-05-17T04:44:56.279Z,90.90
2019-05-17T04:50:23.144Z,90.94
2019-05-17T04:55:45.401Z,90.79
2019-05-17T05:01:12.944Z,89.43
2019-05-17T05:06:33.498Z,89.43
2019-05-17T05:12:04.724Z,89.57
2019-05-17T05:17:22.195Z,89.57
2019-05-17T05:22:46.518Z,89.49
2019-05-17T05:28:08.245Z,89.28
2019-05-17T05:33:33.290Z,89.02
2019-05-17T05:38:55.199Z,88.42
2019-05-17T05:44:18.503Z,88.13
2019-05-17T05:49:34.006Z,88.16
2019-05-17T05:54:57.214Z,88.12
2019-05-17T06:00:22.114Z,88.35
2019-05-17T06:05:43.916Z,88.63
2019-05-17T06:11:07.193Z,88.75
2019-05-17T06:16:29.010Z,88.34
2019-05-17T06:21:52.605Z,88.10
2019-05-17T06:27:08.095Z,87.80
2019-05-17T06:32:31.879Z,88.12
2019-05-17T06:37:55.057Z,87.63
2019-05-17T06:43:16.784Z,86.67
2019-05-17T06:48:32.595Z,86.13
2019-05-17T06:53:54.967Z,86.03
2019-05-17T06:59:17.334Z,86.45
2019-05-17T07:04:40.070Z,86.57
2019-05-17T07:10:02.659Z,86.71
2019-05-17T07:15:24.848Z,87.03
2019-05-17T07:20:46.564Z,87.12
2019-05-17T07:26:02.886Z,86.44
2019-05-17T07:31:24.538Z,86.48
2019-05-17T07:36:40.038Z,87.03
2019-05-17T07:42:01.797Z,87.09
2019-05-17T07:47:23.513Z,87.08
2019-05-17T07:52:39.816Z,86.94
2019-05-17T07:58:01.960Z,86.83
2019-05-17T08:03:17.450Z,86.56
2019-05-17T08:08:40.972Z,86.80
2019-05-17T08:14:02.597Z,86.48
2019-05-17T08:19:20.332Z,86.31
2019-05-17T08:24:41.447Z,85.92
2019-05-17T08:30:04.689Z,86.17
2019-05-17T08:35:20.392Z,86.14
2019-05-17T08:40:43.719Z,85.78
2019-05-17T08:46:05.996Z,85.43
2019-05-17T08:51:30.472Z,84.82
2019-05-17T08:56:55.268Z,84.43
2019-05-17T09:02:19.839Z,83.90
2019-05-17T09:07:44.778Z,83.62
2019-05-17T09:13:12.303Z,82.58
2019-05-17T09:18:33.516Z,82.73
2019-05-17T09:23:50.385Z,82.63
2019-05-17T09:29:16.274Z,82.19
2019-05-17T09:34:40.535Z,81.91
2019-05-17T09:40:03.243Z,81.40
2019-05-17T09:45:26.112Z,81.40
2019-05-17T09:50:50.218Z,80.41
2019-05-17T09:56:13.810Z,80.74
2019-05-17T10:01:39.431Z,80.61
2019-05-17T10:07:03.431Z,79.92
2019-05-17T10:12:26.608Z,78.48
2019-05-17T10:17:50.713Z,78.94
2019-05-17T10:23:13.891Z,79.62
2019-05-17T10:28:36.331Z,79.01
2019-05-17T10:34:00.908Z,77.77
2019-05-17T10:39:23.855Z,75.27
2019-05-17T10:44:47.794Z,75.79
2019-05-17T10:50:10.944Z,76.05
2019-05-17T10:55:33.133Z,76.05
2019-05-17T11:00:54.870Z,75.34
2019-05-17T11:06:11.129Z,76.64
2019-05-17T11:11:33.302Z,74.14
2019-05-17T11:16:55.020Z,74.54
2019-05-17T11:22:16.850Z,74.54
2019-05-17T11:27:38.672Z,75.31
2019-05-17T11:33:02.028Z,75.31
2019-05-17T11:38:24.457Z,75.25
2019-05-17T11:43:46.338Z,75.22
2019-05-17T11:49:09.016Z,75.05
2019-05-17T11:54:30.864Z,75.90
2019-05-17T11:59:52.671Z,76.43
2019-05-17T12:05:14.379Z,76.76
2019-05-17T12:10:31.212Z,76.29
2019-05-17T12:15:53.924Z,75.39
2019-05-17T12:21:16.801Z,75.06
2019-05-17T12:26:41.513Z,74.88
2019-05-17T12:32:05.309Z,74.84
2019-05-17T12:37:29.715Z,74.57
2019-05-17T12:42:51.449Z,75.54
2019-05-17T12:48:17.024Z,76.44
2019-05-17T12:53:38.785Z,76.94
2019-05-17T12:59:02.201Z,77.09
2019-05-17T13:04:25.334Z,76.63
2019-05-17T13:09:49.575Z,75.18
2019-05-17T13:15:11.751Z,72.59
2019-05-17T13:20:35.462Z,71.15
2019-05-17T13:25:57.160Z,69.58
2019-05-17T13:31:20.468Z,68.90
2019-05-17T13:36:42.202Z,66.81
2019-05-17T13:42:05.478Z,66.36
2019-05-17T13:47:28.339Z,66.66
2019-05-17T13:52:51.845Z,66.29
2019-05-17T13:58:15.511Z,63.97
2019-05-17T14:03:38.166Z,65.17
2019-05-17T14:09:01.445Z,66.25
2019-05-17T14:14:24.504Z,63.92
2019-05-17T14:19:47.809Z,62.58
2019-05-17T14:25:10.899Z,62.38
2019-05-17T14:30:35.874Z,62.35
2019-05-17T14:35:57.586Z,63.33
2019-05-17T14:41:23.150Z,62.82
2019-05-17T14:46:45.597Z,65.13
2019-05-17T14:52:08.862Z,65.30
2019-05-17T14:57:30.719Z,63.74
2019-05-17T15:02:54.087Z,62.29
2019-05-17T15:08:15.831Z,62.72
2019-05-17T15:13:39.125Z,64.93
2019-05-17T15:19:00.974Z,63.25
2019-05-17T15:24:24.150Z,60.88
2019-05-17T15:29:45.877Z,54.58
2019-05-17T15:35:10.010Z,57.34
2019-05-17T15:40:33.869Z,58.54
2019-05-17T15:45:57.430Z,58.29
2019-05-17T15:51:19.279Z,59.53
2019-05-17T15:56:42.515Z,61.32
2019-05-17T16:05:48.485Z,61.90
2019-05-17T16:11:11.903Z,55.54
2019-05-17T16:16:35.151Z,49.71
2019-05-17T16:21:58.527Z,47.16
2019-05-17T16:27:22.410Z,45.38
2019-05-17T16:32:45.746Z,47.78
2019-05-17T16:38:09.081Z,42.36
2019-05-17T16:43:32.327Z,44.47
2019-05-17T16:48:55.592Z,40.98
2019-05-17T16:54:19.097Z,39.24
2019-05-17T16:59:42.427Z,39.89
2019-05-17T17:39:55.818Z,47.30
2019-05-17T17:47:22.495Z,47.33
2019-05-17T17:52:46.421Z,45.30
2019-05-17T17:58:08.472Z,48.24
2019-05-17T18:03:32.021Z,50.04
2019-05-17T18:08:53.737Z,52.12
2019-05-17T18:14:15.812Z,54.09
2019-05-17T18:19:37.922Z,55.84
2019-05-17T18:24:59.967Z,57.58
2019-05-17T18:30:24.727Z,58.96
2019-05-17T18:35:51.392Z,60.77
2019-05-17T18:41:15.794Z,62.52
2019-05-17T18:46:39.393Z,63.51
2019-05-17T18:52:01.391Z,64.83
2019-05-17T18:57:25.242Z,65.71
2019-05-17T19:02:46.962Z,66.47
2019-05-17T19:08:10.183Z,67.46
2019-05-17T19:13:27.018Z,68.30
2019-05-17T19:18:52.644Z,71.92
2019-05-17T19:24:14.844Z,70.40
2019-05-17T19:29:36.593Z,71.29
2019-05-17T19:34:55.405Z,72.23
2019-05-17T19:40:21.476Z,74.35
2019-05-17T19:45:45.681Z,72.71
2019-05-17T19:51:09.889Z,73.87
2019-05-17T19:56:31.599Z,74.12
2019-05-17T20:01:55.868Z,73.31
2019-05-17T20:07:17.664Z,74.41
2019-05-17T20:12:39.665Z,74.99
2019-05-17T20:18:01.531Z,76.11
2019-05-17T20:23:23.353Z,75.88
2019-05-17T20:28:46.691Z,76.20
2019-05-17T20:34:10.133Z,78.07
2019-05-17T20:39:33.530Z,77.67
2019-05-17T20:44:55.368Z,77.59
2019-05-17T20:50:19.662Z,77.32
2019-05-17T20:55:41.468Z,77.50
2019-05-17T21:01:04.805Z,78.54
2019-05-17T21:06:26.581Z,79.58
2019-05-17T21:11:49.881Z,78.64
2019-05-17T21:17:05.378Z,78.99
2019-05-17T21:22:28.755Z,80.43
2019-05-17T21:27:44.323Z,80.04
2019-05-17T21:33:07.569Z,81.06
2019-05-17T21:38:23.068Z,79.76
2019-05-17T21:43:45.997Z,80.39
2019-05-17T21:49:01.527Z,80.21
2019-05-17T21:54:24.911Z,81.26
2019-05-17T21:59:46.667Z,80.94
2019-05-17T22:05:11.446Z,80.79
2019-05-17T22:10:33.356Z,81.13
2019-05-17T22:15:56.882Z,81.54
2019-05-17T22:21:12.657Z,81.26
2019-05-17T22:26:36.494Z,82.15
2019-05-17T22:31:58.321Z,82.14
2019-05-17T22:37:21.614Z,81.91
2019-05-17T22:42:44.919Z,82.12
2019-05-17T22:48:06.647Z,82.04
2019-05-17T22:53:29.938Z,82.29
2019-05-17T22:58:51.718Z,83.08
2019-05-17T23:04:15.169Z,82.48
2019-05-17T23:09:30.762Z,83.34
2019-05-17T23:14:54.331Z,84.11
2019-05-17T23:20:12.463Z,82.76
2019-05-17T23:25:35.703Z,83.48
2019-05-17T23:30:57.446Z,84.09
2019-05-17T23:36:20.935Z,83.48
2019-05-17T23:41:36.466Z,84.20
2019-05-17T23:47:07.074Z,84.82
2019-05-17T23:52:23.699Z,84.74
2019-05-17T23:57:47.127Z,84.42
